Time;durP1;ratioP1;P1;durP2;ratioP2;P2;SDS_P1;SDS_P2;PMS_P1;PMS_P2;Temp;Humidity;BMP_temperature;BMP_pressure;BME280_temperature;BME280_humidity;BME280_pressure;Samples;Min_cycle;Max_cycle;Signal;HPM_P1;HPM_P2
2023/10/18 00:02:46;;;;;;;10.35;2.63;;;11.40;10.00;;;;;;6218279;28;20057;-79
2023/10/18 00:05:49;;;;;;;9.93;2.47;;;11.40;10.30;;;;;;6221907;28;20108;-80
2023/10/18 00:09:38;;;;;;;12.50;3.10;;;11.40;10.40;;;;;;6223131;28;20551;-78
2023/10/18 00:12:21;;;;;;;10.52;3.20;;;11.40;10.90;;;;;;6198854;28;20085;-78
2023/10/18 00:15:23;;;;;;;9.05;3.28;;;11.40;11.10;;;;;;6207401;28;20061;-79
2023/10/18 00:18:24;;;;;;;8.00;3.25;;;11.40;11.30;;;;;;6222210;28;20053;-79
2023/10/18 00:21:27;;;;;;;15.02;3.58;;;11.40;10.70;;;;;;6221286;28;20061;-78
2023/10/18 00:24:29;;;;;;;7.78;2.90;;;11.40;10.80;;;;;;6221838;28;20049;-79
2023/10/18 00:27:31;;;;;;;9.68;2.80;;;11.40;11.00;;;;;;6207612;28;20057;-77
2023/10/18 00:30:32;;;;;;;11.00;3.78;;;11.50;11.60;;;;;;6221479;28;20050;-78
2023/10/18 00:33:35;;;;;;;8.25;3.35;;;11.40;11.50;;;;;;6198232;28;20057;-79
2023/10/18 00:36:37;;;;;;;12.43;3.45;;;11.40;11.10;;;;;;6210135;28;20054;-77
2023/10/18 00:39:39;;;;;;;12.38;3.47;;;11.50;11.30;;;;;;6222144;28;20232;-77
2023/10/18 00:42:41;;;;;;;9.13;3.20;;;11.50;11.50;;;;;;6221938;28;20057;-78
2023/10/18 00:45:47;;;;;;;8.32;2.78;;;11.40;12.40;;;;;;6211545;28;20585;-78
2023/10/18 00:48:49;;;;;;;12.57;3.05;;;11.50;12.50;;;;;;6196667;28;20620;-78
2023/10/18 00:51:51;;;;;;;8.93;3.28;;;11.40;12.80;;;;;;6221437;28;20061;-77
2023/10/18 00:54:53;;;;;;;8.43;2.65;;;11.50;12.40;;;;;;6219123;28;20496;-78
2023/10/18 00:57:55;;;;;;;8.63;2.88;;;11.40;12.60;;;;;;6215043;28;20103;-79
2023/10/18 01:00:57;;;;;;;7.78;2.97;;;11.50;13.20;;;;;;6217939;28;20053;-79
2023/10/18 01:04:02;;;;;;;6.60;2.92;;;11.40;13.60;;;;;;6197995;28;20714;-77
2023/10/18 01:07:14;;;;;;;10.10;3.17;;;11.40;13.70;;;;;;6220206;28;20061;-78
2023/10/18 01:10:19;;;;;;;12.57;4.43;;;11.40;13.30;;;;;;6197778;28;20418;-78
2023/10/18 01:13:20;;;;;;;6.93;2.90;;;11.40;14.50;;;;;;6218399;28;20045;-77
2023/10/18 01:16:22;;;;;;;10.85;3.00;;;11.50;15.00;;;;;;6221981;28;20140;-77
2023/10/18 01:19:24;;;;;;;10.73;3.42;;;11.40;14.60;;;;;;6209293;28;20080;-77
2023/10/18 01:22:25;;;;;;;12.00;3.53;;;11.50;14.30;;;;;;6221012;28;20058;-78
2023/10/18 01:25:28;;;;;;;9.30;2.88;;;11.50;14.60;;;;;;6217960;28;20076;-79
2023/10/18 01:28:29;;;;;;;9.98;3.20;;;11.40;15.10;;;;;;6218128;28;20066;-80
2023/10/18 01:31:31;;;;;;;13.65;3.30;;;11.40;15.60;;;;;;6220897;28;20056;-80
2023/10/18 01:34:33;;;;;;;9.05;3.33;;;11.40;16.40;;;;;;6220344;28;20181;-80
2023/10/18 01:37:35;;;;;;;7.53;3.13;;;11.40;16.60;;;;;;6219240;28;20572;-80
2023/10/18 01:40:43;;;;;;;9.38;3.25;;;11.30;16.50;;;;;;6221084;28;20549;-79
2023/10/18 01:43:45;;;;;;;10.88;3.65;;;11.30;17.40;;;;;;6213369;28;20116;-80
2023/10/18 01:46:46;;;;;;;8.65;3.55;;;11.30;18.70;;;;;;6220568;28;20080;-80
2023/10/18 01:49:50;;;;;;;11.60;3.55;;;11.30;19.30;;;;;;6219085;28;20057;-80
2023/10/18 01:52:52;;;;;;;9.10;3.30;;;11.30;19.10;;;;;;6220248;28;20111;-79
2023/10/18 01:55:54;;;;;;;11.18;3.75;;;11.20;19.00;;;;;;6220338;28;20524;-78
2023/10/18 01:58:56;;;;;;;10.07;3.70;;;11.20;19.50;;;;;;6217410;28;20435;-79
2023/10/18 02:01:57;;;;;;;9.63;3.63;;;11.30;19.70;;;;;;6199536;28;20055;-79
2023/10/18 02:04:59;;;;;;;13.32;4.05;;;11.30;20.00;;;;;;6218378;28;20061;-78
2023/10/18 02:08:01;;;;;;;15.40;4.22;;;11.20;19.70;;;;;;6220095;28;20054;-78
2023/10/18 02:11:07;;;;;;;11.05;3.97;;;11.30;19.90;;;;;;6206191;28;20509;-78
2023/10/18 02:14:09;;;;;;;12.93;4.15;;;11.30;20.00;;;;;;6217063;28;20060;-79
2023/10/18 02:17:10;;;;;;;13.15;4.40;;;11.30;20.30;;;;;;6218720;28;20061;-78
2023/10/18 02:20:25;;;;;;;11.82;4.40;;;11.30;20.70;;;;;;6212572;28;20057;-79
2023/10/18 02:23:34;;;;;;;10.18;4.07;;;11.30;20.50;;;;;;6195623;28;20494;-80
2023/10/18 02:26:39;;;;;;;14.57;4.10;;;11.30;21.20;;;;;;6195470;28;20162;-81
2023/10/18 02:29:41;;;;;;;11.82;4.15;;;11.30;22.00;;;;;;6225758;28;20288;-80
2023/10/18 02:32:43;;;;;;;7.40;3.30;;;11.30;21.60;;;;;;6219283;28;20304;-80
2023/10/18 02:35:46;;;;;;;17.05;4.07;;;11.40;21.20;;;;;;6217926;28;20076;-80
2023/10/18 02:38:52;;;;;;;13.65;3.65;;;11.40;22.50;;;;;;6220007;28;20072;-78
2023/10/18 02:41:56;;;;;;;8.85;3.00;;;11.40;22.20;;;;;;6211178;28;20060;-79
2023/10/18 02:44:57;;;;;;;8.38;3.50;;;11.40;23.00;;;;;;6216897;28;20053;-80
2023/10/18 02:48:00;;;;;;;10.57;3.63;;;11.40;22.90;;;;;;6217981;28;20046;-77
2023/10/18 02:51:02;;;;;;;15.35;3.72;;;11.40;22.80;;;;;;6205859;28;20046;-79
2023/10/18 02:54:16;;;;;;;8.40;3.60;;;11.40;24.00;;;;;;6218767;28;20418;-78
2023/10/18 02:57:18;;;;;;;9.07;3.85;;;11.40;23.40;;;;;;6194881;28;20494;-77
2023/10/18 03:00:20;;;;;;;22.00;4.65;;;11.40;23.80;;;;;;6211475;28;20131;-77
2023/10/18 03:03:22;;;;;;;9.23;3.55;;;11.40;23.90;;;;;;6219396;28;20057;-78
2023/10/18 03:06:33;;;;;;;11.30;3.92;;;11.40;24.40;;;;;;6219487;28;20060;-76
2023/10/18 03:12:37;;;;;;;10.73;3.85;;;11.50;26.00;;;;;;6218830;28;20060;-77
2023/10/18 03:15:52;;;;;;;9.25;3.60;;;11.40;25.50;;;;;;6216804;28;20058;-77
2023/10/18 03:19:10;;;;;;;12.57;4.03;;;11.40;25.50;;;;;;6195538;28;20054;-77
2023/10/18 03:22:11;;;;;;;9.15;3.65;;;11.50;27.10;;;;;;6210861;28;20054;-78
2023/10/18 03:25:16;;;;;;;9.27;3.45;;;11.50;26.80;;;;;;6219439;28;20140;-77
2023/10/18 03:28:22;;;;;;;9.75;3.90;;;11.50;27.20;;;;;;6216200;28;20626;-78
2023/10/18 03:31:27;;;;;;;9.52;3.65;;;11.50;26.50;;;;;;6204437;28;20057;-77
2023/10/18 03:34:29;;;;;;;11.45;3.63;;;11.50;27.10;;;;;;6218453;28;20058;-77
2023/10/18 03:37:33;;;;;;;8.18;3.45;;;11.50;27.20;;;;;;6218147;28;20054;-77
2023/10/18 03:40:36;;;;;;;10.43;3.50;;;11.40;27.10;;;;;;6223355;28;20065;-77
2023/10/18 03:43:38;;;;;;;8.00;3.25;;;11.50;27.90;;;;;;6218089;28;20054;-78
2023/10/18 03:46:49;;;;;;;8.90;3.97;;;11.50;28.70;;;;;;6223682;28;20057;-77
2023/10/18 03:49:54;;;;;;;8.02;3.03;;;11.40;28.50;;;;;;6212378;28;20192;-77
2023/10/18 03:52:57;;;;;;;13.25;3.65;;;11.50;29.40;;;;;;6223417;28;20060;-77
2023/10/18 03:55:59;;;;;;;8.52;3.13;;;11.50;30.20;;;;;;6223370;28;20057;-78
2023/10/18 03:59:01;;;;;;;8.85;3.40;;;11.50;30.70;;;;;;6218730;28;20052;-77
2023/10/18 04:02:15;;;;;;;10.48;4.53;;;11.50;30.80;;;;;;6222952;28;20049;-78
2023/10/18 04:05:30;;;;;;;13.52;3.90;;;11.50;31.00;;;;;;6199149;28;20181;-79
2023/10/18 04:08:32;;;;;;;14.02;4.15;;;11.50;30.90;;;;;;6198800;28;20050;-78
2023/10/18 04:11:34;;;;;;;11.25;4.20;;;11.50;31.70;;;;;;6222636;28;20057;-77
2023/10/18 04:14:37;;;;;;;13.30;3.60;;;11.50;31.40;;;;;;6216850;28;20502;-77
2023/10/18 04:17:39;;;;;;;10.13;3.20;;;11.60;32.30;;;;;;6213513;28;20050;-78
2023/10/18 04:20:42;;;;;;;8.30;3.38;;;11.50;32.10;;;;;;6221172;28;20119;-77
2023/10/18 04:23:49;;;;;;;9.52;3.65;;;11.50;32.30;;;;;;6222681;28;20050;-78
2023/10/18 04:26:52;;;;;;;10.38;3.70;;;11.50;33.40;;;;;;6198322;28;20054;-77
2023/10/18 04:29:56;;;;;;;8.95;3.97;;;11.60;33.40;;;;;;6218274;28;20148;-78
2023/10/18 04:33:00;;;;;;;8.77;3.53;;;11.50;33.90;;;;;;6222476;28;20058;-77
2023/10/18 04:36:02;;;;;;;10.35;3.35;;;11.50;33.70;;;;;;6222409;28;20091;-77
2023/10/18 04:39:07;;;;;;;10.77;3.65;;;11.50;34.50;;;;;;6215167;28;20069;-77
2023/10/18 04:42:16;;;;;;;9.73;3.53;;;11.50;34.90;;;;;;6211990;28;20538;-77
2023/10/18 04:45:18;;;;;;;11.27;3.35;;;11.50;35.50;;;;;;6218106;28;20088;-79
2023/10/18 04:48:36;;;;;;;11.65;3.35;;;11.40;35.20;;;;;;6220420;28;20061;-78
2023/10/18 04:54:47;;;;;;;12.68;3.88;;;11.40;37.20;;;;;;6221610;28;20128;-78
2023/10/18 04:57:49;;;;;;;9.20;3.90;;;11.40;38.10;;;;;;6199550;28;20058;-79
2023/10/18 05:00:56;;;;;;;12.27;4.70;;;11.40;38.00;;;;;;6217418;28;20426;-78
2023/10/18 05:04:00;;;;;;;11.38;4.55;;;11.30;38.30;;;;;;6216092;28;20096;-78
2023/10/18 05:07:14;;;;;;;11.07;4.45;;;11.30;38.80;;;;;;6221774;28;20144;-78
2023/10/18 05:10:19;;;;;;;14.10;4.68;;;11.30;39.80;;;;;;6200525;28;20258;-78
2023/10/18 05:13:33;;;;;;;15.52;5.03;;;11.30;38.60;;;;;;6214092;28;20056;-77
2023/10/18 05:16:35;;;;;;;13.50;4.40;;;11.30;41.80;;;;;;6222324;28;20065;-77
2023/10/18 05:19:37;;;;;;;13.40;4.65;;;11.20;42.00;;;;;;6221075;28;20046;-77
2023/10/18 05:22:41;;;;;;;12.50;4.50;;;11.30;42.60;;;;;;6221218;28;20607;-78
2023/10/18 05:25:47;;;;;;;11.90;4.70;;;11.10;42.40;;;;;;6220609;28;20054;-77
2023/10/18 05:29:01;;;;;;;11.00;4.25;;;11.20;44.60;;;;;;6217822;28;20117;-77
2023/10/18 05:32:06;;;;;;;8.52;4.53;;;11.10;44.50;;;;;;6221629;28;20273;-78
2023/10/18 05:35:26;;;;;;;13.27;4.90;;;11.10;45.20;;;;;;6219179;28;20064;-79
2023/10/18 05:39:18;;;;;;;13.27;4.60;;;11.10;45.60;;;;;;6210887;28;20065;-79
2023/10/18 05:41:59;;;;;;;10.70;4.75;;;11.10;44.80;;;;;;6193882;28;20054;-77
2023/10/18 05:45:01;;;;;;;15.70;4.20;;;11.00;46.40;;;;;;6219176;28;20056;-78
2023/10/18 05:48:03;;;;;;;11.20;5.10;;;11.00;48.30;;;;;;6220747;28;20492;-77
2023/10/18 05:54:39;;;;;;;12.80;4.75;;;11.00;49.40;;;;;;6196415;28;20070;-79
2023/10/18 05:57:42;;;;;;;15.05;5.15;;;11.10;49.10;;;;;;6219325;28;20548;-78
2023/10/18 06:00:44;;;;;;;12.50;4.53;;;11.10;50.60;;;;;;6219514;28;20062;-80
2023/10/18 06:03:47;;;;;;;12.70;4.53;;;11.00;49.70;;;;;;6194780;28;20054;-79
2023/10/18 06:06:49;;;;;;;12.98;4.70;;;11.00;50.10;;;;;;6218264;28;20050;-78
2023/10/18 06:10:33;;;;;;;11.63;4.72;;;11.10;49.90;;;;;;6220244;28;20184;-77
2023/10/18 06:13:21;;;;;;;11.18;4.45;;;11.10;50.10;;;;;;6199015;28;20176;-77
2023/10/18 06:16:29;;;;;;;13.35;5.03;;;11.20;49.10;;;;;;6220315;28;20058;-77
2023/10/18 06:19:31;;;;;;;12.10;3.97;;;11.20;48.40;;;;;;6195945;28;20624;-78
2023/10/18 06:22:39;;;;;;;10.07;4.20;;;11.30;48.00;;;;;;6219633;28;20053;-78
2023/10/18 06:25:49;;;;;;;11.35;4.20;;;11.30;47.50;;;;;;6195482;28;20061;-78
2023/10/18 06:28:53;;;;;;;9.75;3.35;;;11.20;47.40;;;;;;6219151;28;20049;-78
2023/10/18 06:31:56;;;;;;;12.45;4.25;;;11.30;48.40;;;;;;6219441;28;20089;-76
2023/10/18 06:35:09;;;;;;;33.60;5.65;;;11.30;47.40;;;;;;6219658;28;20429;-76
2023/10/18 06:38:17;;;;;;;13.80;4.22;;;11.20;46.80;;;;;;6195333;28;20054;-77
2023/10/18 06:41:23;;;;;;;11.55;4.30;;;11.30;46.30;;;;;;6201181;28;20505;-78
2023/10/18 06:44:27;;;;;;;13.57;4.03;;;11.40;45.80;;;;;;6216583;28;20170;-77
2023/10/18 06:47:43;;;;;;;13.48;4.53;;;11.40;45.60;;;;;;6219531;28;20425;-77
2023/10/18 06:50:46;;;;;;;16.70;4.10;;;11.40;44.90;;;;;;6195619;28;20494;-77
2023/10/18 06:53:48;;;;;;;12.25;3.90;;;11.50;43.80;;;;;;6218814;28;20050;-77
2023/10/18 06:56:53;;;;;;;12.73;4.63;;;11.50;43.00;;;;;;6219361;28;20073;-77
2023/10/18 06:59:55;;;;;;;11.32;4.35;;;11.60;42.30;;;;;;6192321;28;20062;-77
2023/10/18 07:02:57;;;;;;;9.80;4.05;;;11.70;41.50;;;;;;6219248;28;20365;-77
2023/10/18 07:06:04;;;;;;;11.30;4.10;;;11.70;40.80;;;;;;6227375;28;20133;-78
2023/10/18 07:09:24;;;;;;;13.30;4.50;;;11.80;40.80;;;;;;6211841;28;20144;-77
2023/10/18 07:12:43;;;;;;;10.98;3.85;;;11.80;39.00;;;;;;6209401;28;20137;-79
2023/10/18 07:15:46;;;;;;;16.17;4.03;;;11.90;39.20;;;;;;6234811;28;20053;-77
2023/10/18 07:19:03;;;;;;;10.30;3.80;;;11.80;38.50;;;;;;6219935;28;20046;-77
2023/10/18 07:22:06;;;;;;;13.32;4.28;;;11.90;37.60;;;;;;6198669;28;20062;-76
2023/10/18 07:25:09;;;;;;;19.10;4.13;;;11.90;37.10;;;;;;6219583;28;20569;-76
2023/10/18 07:28:10;;;;;;;12.13;4.28;;;12.00;36.50;;;;;;6214627;28;20080;-77
2023/10/18 07:31:12;;;;;;;11.38;4.20;;;12.00;35.40;;;;;;6217357;28;20558;-76
2023/10/18 07:34:28;;;;;;;16.27;4.20;;;12.10;35.10;;;;;;6218364;28;20058;-76
2023/10/18 07:37:39;;;;;;;9.70;3.80;;;12.20;33.70;;;;;;6194138;28;20050;-77
2023/10/18 07:40:41;;;;;;;11.30;4.32;;;12.20;32.90;;;;;;6195281;28;20119;-76
2023/10/18 07:43:44;;;;;;;12.50;4.28;;;12.30;31.90;;;;;;6217351;28;20054;-77
2023/10/18 07:46:46;;;;;;;14.75;4.00;;;12.40;31.80;;;;;;6218191;28;20049;-76
2023/10/18 07:49:51;;;;;;;11.02;4.00;;;12.40;30.10;;;;;;6216748;28;20507;-77
2023/10/18 07:52:54;;;;;;;11.32;3.92;;;12.40;30.30;;;;;;6217105;28;20139;-77
2023/10/18 07:56:00;;;;;;;13.45;4.00;;;12.40;29.10;;;;;;6218501;28;20054;-79
2023/10/18 08:02:26;;;;;;;12.18;4.60;;;12.50;27.20;;;;;;6219419;28;20184;-86
2023/10/18 08:05:31;;;;;;;10.82;4.20;;;12.50;28.10;;;;;;6213500;28;20140;-88
2023/10/18 08:08:36;;;;;;;11.10;4.15;;;12.60;25.10;;;;;;6218038;28;20129;-87
2023/10/18 08:11:38;;;;;;;13.68;4.40;;;12.70;25.20;;;;;;6205143;28;20144;-78
2023/10/18 08:14:40;;;;;;;11.68;4.22;;;12.80;23.60;;;;;;6216656;28;20066;-79
2023/10/18 08:17:46;;;;;;;10.85;4.05;;;12.80;22.30;;;;;;6216774;28;20065;-81
2023/10/18 08:23:49;;;;;;;8.98;4.15;;;12.90;21.50;;;;;;6219685;28;20049;-77
2023/10/18 08:26:51;;;;;;;12.05;4.28;;;12.80;19.80;;;;;;6211357;28;20498;-78
2023/10/18 08:29:55;;;;;;;13.57;4.65;;;12.80;20.70;;;;;;6218445;28;20057;-80
2023/10/18 08:32:58;;;;;;;10.15;4.00;;;12.80;19.10;;;;;;6222390;28;20053;-81
2023/10/18 08:36:07;;;;;;;11.10;4.25;;;12.80;20.30;;;;;;6202883;28;20414;-80
2023/10/18 08:39:08;;;;;;;12.95;4.68;;;12.80;18.90;;;;;;6197863;28;20081;-77
2023/10/18 08:42:10;;;;;;;11.77;4.28;;;12.80;17.60;;;;;;6222186;28;20054;-78
2023/10/18 08:45:19;;;;;;;10.57;4.28;;;12.90;18.40;;;;;;6216454;28;20510;-79
2023/10/18 08:48:30;;;;;;;12.30;4.57;;;12.90;17.70;;;;;;6221959;28;20487;-79
2023/10/18 08:51:32;;;;;;;9.05;4.30;;;12.90;18.40;;;;;;6219713;28;20065;-83
2023/10/18 08:54:34;;;;;;;10.40;4.28;;;13.00;18.70;;;;;;6222501;28;20060;-77
2023/10/18 08:57:35;;;;;;;12.13;4.40;;;12.90;17.70;;;;;;6219215;28;20057;-80
2023/10/18 09:03:39;;;;;;;10.55;4.90;;;12.90;18.00;;;;;;6197798;28;20053;-82
2023/10/18 09:06:41;;;;;;;13.65;4.88;;;12.90;19.00;;;;;;6220956;28;20050;-81
2023/10/18 09:09:43;;;;;;;14.27;5.00;;;12.90;20.30;;;;;;6221279;28;20513;-79
2023/10/18 09:15:50;;;;;;;12.07;4.60;;;12.90;21.60;;;;;;6220898;28;20451;-80
2023/10/18 09:19:01;;;;;;;9.93;4.50;;;12.90;20.20;;;;;;6197018;28;20062;-79
2023/10/18 09:22:03;;;;;;;9.90;4.80;;;13.00;20.00;;;;;;6221016;28;20060;-80
2023/10/18 09:25:05;;;;;;;8.57;4.40;;;13.10;20.90;;;;;;6219806;28;20148;-79
2023/10/18 09:28:10;;;;;;;9.27;4.40;;;13.10;18.60;;;;;;6216710;28;20053;-80
2023/10/18 09:31:21;;;;;;;10.30;4.70;;;13.20;16.40;;;;;;6221082;28;20137;-85
2023/10/18 09:34:30;;;;;;;10.95;4.45;;;13.30;15.70;;;;;;6219860;28;20127;-79
2023/10/18 09:37:35;;;;;;;13.68;4.75;;;13.40;15.50;;;;;;6210018;28;20057;-79
2023/10/18 09:40:38;;;;;;;13.90;4.90;;;13.60;16.20;;;;;;6220014;28;20481;-80
2023/10/18 09:43:42;;;;;;;9.65;4.55;;;13.60;12.60;;;;;;6216796;28;20065;-75
2023/10/18 09:46:48;;;;;;;9.52;4.80;;;13.60;12.60;;;;;;6220674;28;20064;-81
2023/10/18 09:49:49;;;;;;;10.65;5.32;;;13.50;12.10;;;;;;6208246;28;20054;-81
2023/10/18 09:52:56;;;;;;;11.18;4.57;;;13.50;13.20;;;;;;6220399;28;20050;-79
2023/10/18 09:55:59;;;;;;;14.73;5.22;;;13.50;14.80;;;;;;6196056;28;20051;-80
2023/10/18 09:59:26;;;;;;;13.52;5.40;;;13.40;14.70;;;;;;6218673;28;20064;-79
2023/10/18 10:02:25;;;;;;;11.88;4.80;;;13.40;15.40;;;;;;6208461;28;20054;-80
2023/10/18 10:05:28;;;;;;;9.93;4.40;;;13.40;16.50;;;;;;6220092;28;20557;-78
2023/10/18 10:08:31;;;;;;;9.32;4.40;;;13.50;16.30;;;;;;6216943;28;20490;-79
2023/10/18 10:11:36;;;;;;;11.15;4.57;;;13.40;17.10;;;;;;6218808;28;20054;-81
2023/10/18 10:14:38;;;;;;;11.18;4.95;;;13.60;16.60;;;;;;6219273;28;20068;-77
2023/10/18 10:17:41;;;;;;;11.88;5.07;;;13.70;16.10;;;;;;6218213;28;20417;-82
2023/10/18 10:20:46;;;;;;;12.60;5.15;;;13.60;17.30;;;;;;6219965;28;20058;-84
2023/10/18 10:23:47;;;;;;;13.30;5.47;;;13.50;20.20;;;;;;6219844;28;20472;-82
2023/10/18 10:26:49;;;;;;;12.48;4.90;;;13.50;20.50;;;;;;6201175;28;20470;-86
2023/10/18 10:29:56;;;;;;;10.82;4.72;;;13.60;24.50;;;;;;6216851;28;20140;-84
2023/10/18 10:33:05;;;;;;;10.55;4.90;;;13.70;19.20;;;;;;6211232;28;20062;-78
2023/10/18 10:36:07;;;;;;;11.90;5.10;;;13.70;22.70;;;;;;6210026;28;20066;-80
2023/10/18 10:39:12;;;;;;;11.63;5.18;;;13.80;19.00;;;;;;6218290;28;20057;-82
2023/10/18 10:42:28;;;;;;;10.65;4.85;;;13.90;17.10;;;;;;6219196;28;20081;-78
2023/10/18 10:45:31;;;;;;;16.63;4.72;;;14.00;18.80;;;;;;6191844;28;20414;-79
2023/10/18 10:48:32;;;;;;;11.90;4.90;;;14.00;15.70;;;;;;6213619;28;20087;-82
2023/10/18 10:51:37;;;;;;;9.50;4.88;;;14.10;15.20;;;;;;6216277;28;20053;-79
2023/10/18 10:54:39;;;;;;;8.73;4.60;;;14.30;14.60;;;;;;6219504;28;20054;-85
2023/10/18 10:57:43;;;;;;;12.60;5.07;;;14.50;10.90;;;;;;6218044;28;20399;-81
2023/10/18 11:00:49;;;;;;;10.60;4.78;;;14.50;9.60;;;;;;6220734;28;20154;-85
2023/10/18 11:03:55;;;;;;;15.63;5.07;;;14.40;11.20;;;;;;6215592;28;20075;-82
2023/10/18 11:06:57;;;;;;;10.07;4.78;;;14.20;9.40;;;;;;6200611;28;20084;-86
2023/10/18 11:10:01;;;;;;;12.88;4.95;;;14.30;13.10;;;;;;6217827;28;20081;-87
2023/10/18 11:13:04;;;;;;;10.55;4.45;;;14.40;12.60;;;;;;6216139;28;20525;-82
2023/10/18 11:16:06;;;;;;;9.25;4.65;;;14.50;10.50;;;;;;6218941;28;20061;-82
2023/10/18 11:19:08;;;;;;;9.35;4.60;;;14.40;7.30;;;;;;6217345;28;20053;-82
2023/10/18 11:22:13;;;;;;;10.30;4.82;;;14.40;7.70;;;;;;6216149;28;20505;-82
2023/10/18 11:25:19;;;;;;;8.68;4.10;;;14.50;9.60;;;;;;6218333;28;20203;-79
2023/10/18 11:28:28;;;;;;;10.05;4.35;;;14.60;5.50;;;;;;6208519;28;20057;-80
2023/10/18 11:31:30;;;;;;;13.93;4.43;;;14.50;7.60;;;;;;6194910;28;20426;-80
2023/10/18 11:34:33;;;;;;;11.18;4.68;;;14.60;6.20;;;;;;6217354;28;20058;-80
2023/10/18 11:37:34;;;;;;;8.15;4.47;;;14.80;6.20;;;;;;6217030;28;20380;-80
2023/10/18 11:40:40;;;;;;;14.88;5.28;;;14.80;7.30;;;;;;6218423;28;20057;-80
2023/10/18 11:43:44;;;;;;;10.02;4.40;;;15.00;6.50;;;;;;6217955;28;20062;-83
2023/10/18 11:46:46;;;;;;;10.20;4.47;;;15.10;5.50;;;;;;6217211;28;20065;-81
2023/10/18 11:49:54;;;;;;;12.68;4.95;;;15.00;6.70;;;;;;6216482;28;20054;-80
2023/10/18 11:52:56;;;;;;;14.63;4.22;;;14.90;6.30;;;;;;6205143;28;20050;-81
2023/10/18 11:55:58;;;;;;;8.95;3.95;;;15.00;9.70;;;;;;6217042;28;20058;-81
2023/10/18 11:59:03;;;;;;;11.45;4.82;;;15.10;9.50;;;;;;6213021;28;20092;-79
2023/10/18 12:02:05;;;;;;;13.02;4.15;;;15.00;6.70;;;;;;6223335;28;20444;-81
2023/10/18 12:05:10;;;;;;;9.48;4.38;;;15.00;5.50;;;;;;6226146;28;20046;-81
2023/10/18 12:08:13;;;;;;;14.57;4.75;;;15.00;10.00;;;;;;6224684;28;20054;-79
2023/10/18 12:11:16;;;;;;;12.77;4.53;;;14.80;8.40;;;;;;6225411;28;20050;-78
2023/10/18 12:14:18;;;;;;;10.57;5.10;;;14.80;7.60;;;;;;6221987;28;20224;-78
2023/10/18 12:17:21;;;;;;;11.77;4.30;;;14.90;9.90;;;;;;6225032;28;20254;-81
2023/10/18 12:20:34;;;;;;;13.93;4.50;;;15.10;10.10;;;;;;6226345;28;20049;-81
2023/10/18 12:23:46;;;;;;;10.55;4.80;;;15.00;7.60;;;;;;6199458;28;20498;-79
2023/10/18 12:26:53;;;;;;;9.98;4.40;;;15.00;10.90;;;;;;6223378;28;20425;-80
2023/10/18 12:29:59;;;;;;;11.10;5.05;;;14.90;11.20;;;;;;6197868;28;20085;-80
2023/10/18 12:33:05;;;;;;;11.38;4.32;;;14.80;11.30;;;;;;6198814;28;20057;-79
2023/10/18 12:36:08;;;;;;;10.30;5.20;;;14.70;12.50;;;;;;6197331;28;20136;-79
2023/10/18 12:39:10;;;;;;;13.13;5.00;;;14.70;15.20;;;;;;6197164;28;20057;-80
2023/10/18 12:42:12;;;;;;;12.10;4.45;;;14.60;17.00;;;;;;6222142;28;20064;-80
2023/10/18 12:45:18;;;;;;;8.95;4.70;;;14.60;20.50;;;;;;6218061;28;20421;-80
2023/10/18 12:48:23;;;;;;;9.65;4.60;;;14.40;21.10;;;;;;6220819;28;20538;-80
2023/10/18 12:51:31;;;;;;;15.75;4.90;;;14.40;25.70;;;;;;6220399;28;20437;-80
2023/10/18 12:54:36;;;;;;;12.40;4.30;;;14.40;22.20;;;;;;6198042;28;20058;-80
2023/10/18 12:57:42;;;;;;;11.30;4.57;;;14.40;26.50;;;;;;6229576;28;20144;-80
2023/10/18 13:00:44;;;;;;;14.35;4.68;;;14.40;24.10;;;;;;6222139;28;20054;-80
2023/10/18 13:03:56;;;;;;;13.18;5.00;;;14.30;25.70;;;;;;6197645;28;20425;-81
2023/10/18 13:07:18;;;;;;;12.50;4.85;;;14.20;29.70;;;;;;6213211;28;20073;-80
2023/10/18 13:10:29;;;;;;;15.57;5.38;;;14.20;25.20;;;;;;6197526;28;20403;-80
2023/10/18 13:13:31;;;;;;;11.65;4.90;;;14.20;29.70;;;;;;6218158;28;20054;-80
2023/10/18 13:16:32;;;;;;;11.27;4.88;;;14.00;27.80;;;;;;6221928;28;20054;-80
2023/10/18 13:19:37;;;;;;;10.75;4.97;;;14.00;29.50;;;;;;6222929;28;20049;-83
2023/10/18 13:22:39;;;;;;;11.40;5.20;;;13.90;34.00;;;;;;6220470;28;20068;-82
2023/10/18 13:25:52;;;;;;;11.07;5.10;;;13.80;34.50;;;;;;6222242;28;20045;-83
2023/10/18 13:28:59;;;;;;;13.93;5.40;;;13.70;35.40;;;;;;6217773;28;20054;-83
2023/10/18 13:32:10;;;;;;;15.65;5.15;;;13.60;40.20;;;;;;6220432;28;20054;-82
2023/10/18 13:35:14;;;;;;;12.60;5.18;;;13.50;41.90;;;;;;6221779;28;20161;-80
2023/10/18 13:38:17;;;;;;;12.90;6.32;;;13.40;45.80;;;;;;6221586;28;20052;-82
2023/10/18 13:41:18;;;;;;;16.05;7.00;;;13.40;48.40;;;;;;6221116;28;20052;-84
2023/10/18 13:44:21;;;;;;;15.15;6.88;;;13.30;50.70;;;;;;6211296;28;20406;-80
2023/10/18 13:47:26;;;;;;;17.23;6.95;;;13.20;53.50;;;;;;6220718;28;20053;-81
2023/10/18 13:50:31;;;;;;;17.45;7.43;;;13.10;56.60;;;;;;6196657;28;20137;-80
2023/10/18 13:53:33;;;;;;;16.95;7.22;;;13.10;62.20;;;;;;6221334;28;20061;-80
2023/10/18 13:56:35;;;;;;;24.58;7.38;;;13.00;65.10;;;;;;6219016;28;20057;-78
2023/10/18 13:59:38;;;;;;;13.57;6.95;;;12.90;66.40;;;;;;6218051;28;20365;-84
2023/10/18 14:02:40;;;;;;;16.67;6.70;;;12.70;71.40;;;;;;6220734;28;20054;-84
2023/10/18 14:05:45;;;;;;;17.30;7.63;;;12.80;73.80;;;;;;6220124;28;20046;-82
2023/10/18 14:08:47;;;;;;;18.90;7.93;;;12.70;75.40;;;;;;6221677;28;20050;-92
2023/10/18 14:11:51;;;;;;;16.83;7.78;;;12.70;75.80;;;;;;6225038;28;20049;-87
2023/10/18 14:14:53;;;;;;;15.70;5.80;;;12.70;76.50;;;;;;6236876;28;20152;-87
2023/10/18 14:17:55;;;;;;;12.05;5.43;;;12.60;76.40;;;;;;6232595;28;20057;-85
2023/10/18 14:21:04;;;;;;;13.13;6.50;;;12.60;77.50;;;;;;6223872;28;20049;-84
2023/10/18 14:24:07;;;;;;;16.58;6.55;;;12.70;78.90;;;;;;6197325;28;20356;-85
2023/10/18 14:27:09;;;;;;;15.00;6.00;;;12.60;79.80;;;;;;6219237;28;20057;-82
2023/10/18 14:30:12;;;;;;;16.23;6.00;;;12.70;79.60;;;;;;6219570;28;20264;-84
2023/10/18 14:33:14;;;;;;;19.15;6.30;;;12.60;81.10;;;;;;6217744;28;20050;-85
2023/10/18 14:36:32;;;;;;;13.85;5.93;;;12.70;80.60;;;;;;6201316;28;20060;-81
2023/10/18 14:39:34;;;;;;;16.70;6.72;;;12.70;80.90;;;;;;6194761;28;20050;-80
2023/10/18 14:42:43;;;;;;;11.95;5.50;;;12.80;81.20;;;;;;6210291;28;20539;-79
2023/10/18 14:45:46;;;;;;;16.08;6.00;;;12.80;80.40;;;;;;6219816;28;20471;-84
2023/10/18 14:48:48;;;;;;;16.85;6.28;;;12.80;80.90;;;;;;6192582;28;20050;-78
2023/10/18 14:51:54;;;;;;;14.02;5.88;;;12.80;81.60;;;;;;6203781;28;20050;-82
2023/10/18 14:54:55;;;;;;;13.27;5.80;;;12.80;81.60;;;;;;6218673;28;20061;-82
2023/10/18 14:57:57;;;;;;;15.35;6.57;;;12.80;81.60;;;;;;6216403;28;20060;-82
2023/10/18 15:00:59;;;;;;;16.98;5.93;;;12.90;81.70;;;;;;6219241;28;20416;-83
2023/10/18 15:04:03;;;;;;;11.63;5.80;;;12.80;82.30;;;;;;6194857;28;20058;-77
2023/10/18 15:07:05;;;;;;;12.20;6.10;;;12.80;82.40;;;;;;6204305;28;20045;-80
2023/10/18 15:10:06;;;;;;;13.85;6.60;;;12.80;83.10;;;;;;6194530;28;20142;-81
2023/10/18 15:13:08;;;;;;;16.45;6.35;;;12.80;83.30;;;;;;6209398;28;20056;-82
2023/10/18 15:16:12;;;;;;;10.65;5.97;;;12.80;83.90;;;;;;6218789;28;20062;-82
2023/10/18 15:19:14;;;;;;;12.25;5.50;;;12.70;84.10;;;;;;6218485;28;20057;-79
2023/10/18 15:22:16;;;;;;;17.45;6.28;;;12.70;84.50;;;;;;6203077;28;20147;-81
2023/10/18 15:25:19;;;;;;;14.70;6.35;;;12.70;84.60;;;;;;6216787;28;20049;-78
2023/10/18 15:28:21;;;;;;;13.45;5.95;;;12.70;85.20;;;;;;6212388;28;20061;-80
2023/10/18 15:31:23;;;;;;;17.88;7.20;;;12.70;85.40;;;;;;6217867;28;20054;-78
2023/10/18 15:34:25;;;;;;;12.05;6.20;;;12.60;85.70;;;;;;6196285;28;20498;-81
2023/10/18 15:37:27;;;;;;;16.02;7.70;;;12.70;86.20;;;;;;6222484;28;20054;-84
2023/10/18 15:40:30;;;;;;;14.57;6.88;;;12.70;86.20;;;;;;6221943;28;20083;-81
2023/10/18 15:43:32;;;;;;;16.02;6.65;;;12.60;86.60;;;;;;6222767;28;20061;-79
2023/10/18 15:46:33;;;;;;;15.65;7.13;;;12.70;86.90;;;;;;6223064;28;20041;-80
2023/10/18 15:49:35;;;;;;;15.43;7.28;;;12.70;86.90;;;;;;6220917;28;20058;-79
2023/10/18 15:52:37;;;;;;;13.13;6.30;;;12.70;87.20;;;;;;6222482;28;20050;-81
2023/10/18 15:55:39;;;;;;;13.73;6.05;;;12.70;87.40;;;;;;6222952;28;20057;-81
2023/10/18 15:58:45;;;;;;;15.82;7.05;;;12.70;87.50;;;;;;6221418;28;20563;-81
2023/10/18 16:01:47;;;;;;;16.33;7.15;;;12.80;87.70;;;;;;6222893;28;20049;-79
2023/10/18 16:04:59;;;;;;;15.00;6.55;;;12.80;87.90;;;;;;6198309;28;20050;-77
2023/10/18 16:08:04;;;;;;;15.02;6.10;;;12.80;88.10;;;;;;6221845;28;20049;-74
2023/10/18 16:11:06;;;;;;;11.77;6.10;;;12.80;88.50;;;;;;6222482;28;20497;-79
2023/10/18 16:14:07;;;;;;;14.82;6.00;;;12.90;88.60;;;;;;6216528;28;20389;-78
2023/10/18 16:17:12;;;;;;;13.23;6.10;;;12.90;88.70;;;;;;6220764;28;20481;-79